Time;durP1;ratioP1;P1;durP2;ratioP2;P2;SDS_P1;SDS_P2;PMS_P1;PMS_P2;Temp;Humidity;BMP_temperature;BMP_pressure;BME280_temperature;BME280_humidity;BME280_pressure;Samples;Min_cycle;Max_cycle;Signal;HPM_P1;HPM_P2
2022/06/09 00:02:25;;;;;;;8.68;7.78;;;;;;;;;;4922910;29;20377;-81
2022/06/09 00:04:51;;;;;;;10.18;7.57;;;;;;;;;;4931119;29;20271;-83
2022/06/09 00:07:20;;;;;;;10.23;7.47;;;;;;;;;;4929486;29;20519;-84
2022/06/09 00:10:05;;;;;;;9.55;8.00;;;;;;;;;;4882748;29;20052;-84
2022/06/09 00:12:31;;;;;;;8.82;8.02;;;;;;;;;;4903454;29;20509;-84
2022/06/09 00:14:57;;;;;;;13.98;8.23;;;;;;;;;;4902633;29;20163;-85
2022/06/09 00:17:24;;;;;;;10.90;8.30;;;;;;;;;;4887527;29;20107;-85
2022/06/09 00:19:50;;;;;;;11.35;8.50;;;;;;;;;;4903963;29;20629;-84
2022/06/09 00:22:16;;;;;;;10.60;8.52;;;;;;;;;;4901515;29;21700;-83
2022/06/09 00:24:42;;;;;;;13.43;9.57;;;;;;;;;;4903034;29;20545;-84
2022/06/09 00:27:09;;;;;;;17.13;11.73;;;;;;;;;;4886715;29;20517;-84
2022/06/09 00:29:35;;;;;;;14.10;11.43;;;;;;;;;;4901861;29;20064;-84
2022/06/09 00:32:01;;;;;;;17.48;11.85;;;;;;;;;;4904138;29;20683;-84
2022/06/09 00:34:27;;;;;;;15.52;12.18;;;;;;;;;;4900887;29;20040;-83
2022/06/09 00:36:53;;;;;;;15.80;12.20;;;;;;;;;;4871095;29;20704;-85
2022/06/09 00:39:19;;;;;;;13.05;11.32;;;;;;;;;;4901090;29;20055;-84
2022/06/09 00:41:45;;;;;;;14.40;11.95;;;;;;;;;;4923045;29;20056;-83
2022/06/09 00:44:13;;;;;;;14.63;12.48;;;;;;;;;;4915550;29;20060;-84
2022/06/09 00:46:40;;;;;;;16.20;13.35;;;;;;;;;;4888102;29;20032;-84
2022/06/09 00:49:11;;;;;;;17.90;14.50;;;;;;;;;;4907565;29;20056;-85
2022/06/09 00:51:40;;;;;;;18.77;14.43;;;;;;;;;;4873363;29;20044;-83
2022/06/09 00:54:09;;;;;;;20.45;15.65;;;;;;;;;;4909072;29;20087;-85
2022/06/09 00:56:38;;;;;;;21.42;15.93;;;;;;;;;;4890456;29;20433;-84
2022/06/09 00:59:04;;;;;;;18.38;16.10;;;;;;;;;;4907969;29;20056;-83
2022/06/09 01:01:33;;;;;;;23.48;17.58;;;;;;;;;;4907679;29;20087;-83
2022/06/09 01:04:04;;;;;;;21.52;17.30;;;;;;;;;;4906833;29;20052;-83
2022/06/09 01:06:35;;;;;;;24.20;19.83;;;;;;;;;;4891971;29;20458;-84
2022/06/09 01:09:05;;;;;;;30.25;19.83;;;;;;;;;;4906410;29;20056;-83
2022/06/09 01:11:31;;;;;;;32.70;20.27;;;;;;;;;;4914209;29;20040;-83
2022/06/09 01:13:58;;;;;;;35.30;22.05;;;;;;;;;;4874735;29;20496;-84
2022/06/09 01:16:29;;;;;;;29.27;21.55;;;;;;;;;;4891781;29;20044;-83
2022/06/09 01:19:11;;;;;;;35.60;22.73;;;;;;;;;;4909125;29;20052;-83
2022/06/09 01:21:40;;;;;;;38.03;23.58;;;;;;;;;;4906504;29;20040;-84
2022/06/09 01:24:25;;;;;;;35.92;23.63;;;;;;;;;;4894963;29;20110;-84
2022/06/09 01:26:57;;;;;;;38.53;23.98;;;;;;;;;;4908216;29;20496;-84
2022/06/09 01:29:39;;;;;;;33.83;23.17;;;;;;;;;;4906510;29;20445;-83
2022/06/09 01:32:05;;;;;;;41.72;25.38;;;;;;;;;;4914851;29;20048;-82
2022/06/09 01:34:35;;;;;;;38.25;24.05;;;;;;;;;;4878848;29;20047;-83
2022/06/09 01:37:04;;;;;;;37.25;24.02;;;;;;;;;;4910355;29;20055;-83
2022/06/09 01:39:49;;;;;;;37.10;24.65;;;;;;;;;;4907386;29;20056;-83
2022/06/09 01:42:31;;;;;;;35.38;24.63;;;;;;;;;;4907131;29;20553;-83
2022/06/09 01:45:07;;;;;;;41.65;26.80;;;;;;;;;;4917285;29;20132;-83
2022/06/09 01:47:36;;;;;;;42.33;26.73;;;;;;;;;;4931056;29;20057;-84
2022/06/09 01:50:06;;;;;;;47.13;27.70;;;;;;;;;;4931937;29;20540;-83
2022/06/09 01:52:36;;;;;;;43.00;28.00;;;;;;;;;;4917071;29;20059;-83
2022/06/09 01:55:04;;;;;;;45.42;28.58;;;;;;;;;;4929357;29;20130;-84
2022/06/09 01:57:37;;;;;;;46.13;28.83;;;;;;;;;;4922706;29;20072;-83
2022/06/09 02:00:07;;;;;;;47.15;29.63;;;;;;;;;;4927237;29;20404;-82
2022/06/09 02:02:36;;;;;;;50.75;30.15;;;;;;;;;;4924389;29;20510;-82
2022/06/09 02:05:08;;;;;;;52.85;29.75;;;;;;;;;;4914854;29;20132;-81
2022/06/09 02:07:37;;;;;;;54.83;32.10;;;;;;;;;;4932252;29;20039;-82
2022/06/09 02:10:32;;;;;;;58.53;32.95;;;;;;;;;;4938123;29;20047;-81
2022/06/09 02:13:04;;;;;;;53.30;32.38;;;;;;;;;;4914455;29;20786;-82
2022/06/09 02:15:36;;;;;;;61.30;34.67;;;;;;;;;;4933015;28;20035;-84
2022/06/09 02:18:09;;;;;;;64.43;35.72;;;;;;;;;;4930855;29;20051;-83
2022/06/09 02:20:37;;;;;;;71.30;36.17;;;;;;;;;;4928148;28;20055;-83
2022/06/09 02:23:03;;;;;;;60.65;34.28;;;;;;;;;;4942385;29;20047;-83
2022/06/09 02:25:29;;;;;;;62.08;32.25;;;;;;;;;;4923890;29;20051;-82
2022/06/09 02:27:55;;;;;;;61.22;31.42;;;;;;;;;;4920874;29;20097;-84
2022/06/09 02:30:21;;;;;;;61.70;31.63;;;;;;;;;;4920265;29;20059;-83
2022/06/09 02:32:47;;;;;;;59.22;31.63;;;;;;;;;;4937144;28;20056;-82
2022/06/09 02:35:13;;;;;;;57.28;30.48;;;;;;;;;;4886963;29;20043;-83
2022/06/09 02:37:40;;;;;;;62.42;31.58;;;;;;;;;;4942219;28;20052;-83
2022/06/09 02:40:07;;;;;;;68.57;31.50;;;;;;;;;;4929563;29;20059;-82
2022/06/09 02:42:33;;;;;;;72.53;32.80;;;;;;;;;;4936697;29;20137;-84
2022/06/09 02:44:59;;;;;;;69.00;30.92;;;;;;;;;;4935318;29;20416;-82
2022/06/09 02:47:50;;;;;;;75.57;33.05;;;;;;;;;;4915355;29;20089;-82
2022/06/09 02:50:19;;;;;;;77.10;34.60;;;;;;;;;;4932650;29;20154;-80
2022/06/09 02:52:45;;;;;;;70.82;33.50;;;;;;;;;;4922748;29;20130;-82
2022/06/09 02:55:12;;;;;;;80.07;33.90;;;;;;;;;;4903298;29;20047;-83
2022/06/09 02:57:39;;;;;;;71.97;35.13;;;;;;;;;;4922213;29;20474;-83
2022/06/09 03:00:06;;;;;;;69.47;33.60;;;;;;;;;;4917851;29;20047;-84
2022/06/09 03:02:51;;;;;;;70.13;33.65;;;;;;;;;;4935399;28;20036;-84
2022/06/09 03:05:17;;;;;;;69.75;32.85;;;;;;;;;;4936138;28;20102;-83
2022/06/09 03:07:43;;;;;;;74.50;32.45;;;;;;;;;;4935473;29;20089;-83
2022/06/09 03:10:09;;;;;;;70.03;32.00;;;;;;;;;;4927395;29;20052;-84
2022/06/09 03:12:35;;;;;;;66.85;32.22;;;;;;;;;;4913492;29;20035;-84
2022/06/09 03:15:02;;;;;;;62.88;31.70;;;;;;;;;;4932203;28;20102;-83
2022/06/09 03:17:28;;;;;;;72.03;33.63;;;;;;;;;;4903894;29;20615;-84
2022/06/09 03:19:54;;;;;;;66.10;32.42;;;;;;;;;;4939375;29;20530;-84
2022/06/09 03:22:22;;;;;;;64.18;33.78;;;;;;;;;;4933550;28;20436;-83
2022/06/09 03:24:48;;;;;;;57.78;33.10;;;;;;;;;;4940059;29;20066;-83
2022/06/09 03:27:20;;;;;;;55.75;32.08;;;;;;;;;;4936791;28;20086;-83
2022/06/09 03:29:46;;;;;;;58.65;32.05;;;;;;;;;;4919943;29;20035;-84
2022/06/09 03:32:12;;;;;;;57.45;32.40;;;;;;;;;;4936049;29;20051;-83
2022/06/09 03:34:38;;;;;;;55.78;30.52;;;;;;;;;;4905174;29;20503;-83
2022/06/09 03:37:04;;;;;;;54.83;30.90;;;;;;;;;;4920874;29;20756;-82
2022/06/09 03:39:30;;;;;;;47.53;30.35;;;;;;;;;;4934015;29;20042;-83
2022/06/09 03:41:56;;;;;;;52.10;30.13;;;;;;;;;;4906504;29;20039;-83
2022/06/09 03:44:22;;;;;;;51.03;28.50;;;;;;;;;;4934791;29;20059;-83
2022/06/09 03:46:48;;;;;;;52.85;31.13;;;;;;;;;;4902237;29;20052;-83
2022/06/09 03:49:15;;;;;;;49.70;30.48;;;;;;;;;;4937446;28;20035;-82
2022/06/09 03:51:41;;;;;;;56.35;31.23;;;;;;;;;;4899778;29;20576;-83
2022/06/09 03:54:07;;;;;;;56.95;32.60;;;;;;;;;;4898942;29;20051;-84
2022/06/09 03:56:42;;;;;;;62.15;32.50;;;;;;;;;;4896861;29;20048;-82
2022/06/09 03:59:09;;;;;;;61.38;33.22;;;;;;;;;;4890524;29;20131;-84
2022/06/09 04:01:35;;;;;;;58.97;33.30;;;;;;;;;;4878677;29;21099;-84
2022/06/09 04:04:01;;;;;;;55.67;31.55;;;;;;;;;;4893401;29;20556;-82
2022/06/09 04:06:28;;;;;;;49.60;30.83;;;;;;;;;;4895600;29;20048;-82
2022/06/09 04:08:54;;;;;;;46.88;30.23;;;;;;;;;;4898792;29;20408;-82
2022/06/09 04:11:21;;;;;;;49.38;29.50;;;;;;;;;;4896140;29;20136;-83
2022/06/09 04:13:47;;;;;;;44.38;28.00;;;;;;;;;;4892445;29;20588;-82
2022/06/09 04:16:25;;;;;;;47.40;27.73;;;;;;;;;;4882543;29;20519;-83
2022/06/09 04:18:54;;;;;;;47.33;28.58;;;;;;;;;;4896201;29;20048;-84
2022/06/09 04:21:26;;;;;;;54.72;31.23;;;;;;;;;;4892601;29;20056;-84
2022/06/09 04:23:52;;;;;;;59.70;33.28;;;;;;;;;;4934996;29;20101;-84
2022/06/09 04:26:20;;;;;;;48.13;31.05;;;;;;;;;;4894495;29;20051;-84
2022/06/09 04:28:55;;;;;;;51.20;32.70;;;;;;;;;;4934010;29;20522;-84
2022/06/09 04:31:33;;;;;;;45.05;29.52;;;;;;;;;;4927739;29;20043;-84
2022/06/09 04:33:59;;;;;;;43.03;27.73;;;;;;;;;;4943733;29;20039;-83
2022/06/09 04:36:30;;;;;;;42.42;26.98;;;;;;;;;;4923386;29;20177;-83
2022/06/09 04:38:56;;;;;;;37.35;26.52;;;;;;;;;;4928545;29;20047;-83
2022/06/09 04:41:22;;;;;;;40.20;25.00;;;;;;;;;;4905744;29;20054;-84
2022/06/09 04:43:48;;;;;;;38.05;25.67;;;;;;;;;;4925676;29;20091;-82
2022/06/09 04:46:16;;;;;;;37.92;26.42;;;;;;;;;;4929502;29;20048;-85
2022/06/09 04:48:42;;;;;;;40.88;26.80;;;;;;;;;;4929341;29;20043;-85
2022/06/09 04:51:09;;;;;;;41.38;27.58;;;;;;;;;;4927841;29;20055;-84
2022/06/09 04:53:39;;;;;;;39.25;27.30;;;;;;;;;;4898494;29;20043;-85
2022/06/09 04:56:12;;;;;;;42.90;27.88;;;;;;;;;;4908638;29;20122;-85
2022/06/09 04:58:41;;;;;;;40.88;27.92;;;;;;;;;;4899105;29;20155;-84
2022/06/09 05:01:25;;;;;;;44.15;28.45;;;;;;;;;;4926013;29;20143;-84
2022/06/09 05:04:01;;;;;;;43.05;27.40;;;;;;;;;;4913890;29;20102;-85
2022/06/09 05:06:28;;;;;;;43.10;27.02;;;;;;;;;;4924663;29;20035;-84
2022/06/09 05:08:55;;;;;;;42.70;27.40;;;;;;;;;;4911261;29;20126;-84
2022/06/09 05:11:23;;;;;;;41.22;25.98;;;;;;;;;;4929536;29;20127;-84
2022/06/09 05:13:49;;;;;;;40.13;25.75;;;;;;;;;;4913773;29;20043;-83
2022/06/09 05:16:15;;;;;;;43.30;26.95;;;;;;;;;;4928777;29;20863;-84
2022/06/09 05:18:42;;;;;;;42.83;25.25;;;;;;;;;;4910748;29;20143;-84
2022/06/09 05:21:09;;;;;;;34.80;23.70;;;;;;;;;;4928637;29;20056;-84
2022/06/09 05:23:36;;;;;;;25.10;19.52;;;;;;;;;;4926958;29;20520;-85
2022/06/09 05:26:03;;;;;;;27.13;20.63;;;;;;;;;;4928791;29;20131;-84
2022/06/09 05:28:30;;;;;;;30.48;22.23;;;;;;;;;;4928622;29;20056;-84
2022/06/09 05:30:57;;;;;;;30.42;21.10;;;;;;;;;;4912640;29;20090;-84
2022/06/09 05:33:23;;;;;;;32.25;22.63;;;;;;;;;;4929292;29;20166;-85
2022/06/09 05:35:49;;;;;;;31.30;23.20;;;;;;;;;;4928379;29;20088;-83
2022/06/09 05:46:35;;;;;;;30.45;21.63;;;;;;;;;;4928824;29;20066;-86
2022/06/09 05:49:01;;;;;;;33.58;23.80;;;;;;;;;;4911911;29;20052;-83
2022/06/09 05:51:27;;;;;;;29.02;21.95;;;;;;;;;;4910407;29;20183;-82
2022/06/09 05:53:53;;;;;;;28.75;19.77;;;;;;;;;;4907418;29;20432;-83
2022/06/09 05:56:19;;;;;;;30.70;21.98;;;;;;;;;;4910924;29;20651;-83
2022/06/09 05:58:46;;;;;;;27.10;20.10;;;;;;;;;;4927987;29;20206;-84
2022/06/09 06:01:13;;;;;;;25.42;19.27;;;;;;;;;;4912353;29;20055;-83
2022/06/09 06:03:40;;;;;;;24.20;18.65;;;;;;;;;;4928990;29;20055;-83
2022/06/09 06:08:54;;;;;;;27.70;19.55;;;;;;;;;;4906293;29;20063;-82
2022/06/09 06:11:20;;;;;;;24.85;19.48;;;;;;;;;;4923591;29;20191;-83
2022/06/09 06:13:47;;;;;;;22.52;16.38;;;;;;;;;;4909665;29;20036;-83
2022/06/09 06:16:16;;;;;;;18.08;15.48;;;;;;;;;;4866698;29;20096;-82
2022/06/09 06:18:42;;;;;;;19.98;16.08;;;;;;;;;;4881303;29;20056;-83
2022/06/09 06:21:08;;;;;;;20.05;15.68;;;;;;;;;;4883872;29;20112;-83
2022/06/09 06:23:34;;;;;;;26.27;18.45;;;;;;;;;;4885959;29;20033;-83
2022/06/09 06:26:01;;;;;;;27.15;19.92;;;;;;;;;;4883603;29;20122;-84
2022/06/09 06:28:27;;;;;;;29.70;19.17;;;;;;;;;;4877951;29;20045;-84
2022/06/09 06:30:53;;;;;;;23.60;19.83;;;;;;;;;;4882354;29;20139;-83
2022/06/09 06:33:19;;;;;;;23.80;18.60;;;;;;;;;;4881576;29;20385;-84
2022/06/09 06:35:46;;;;;;;24.63;18.73;;;;;;;;;;4881708;29;20931;-83
2022/06/09 06:38:15;;;;;;;24.60;19.00;;;;;;;;;;4882664;29;20224;-84
2022/06/09 06:40:41;;;;;;;24.20;19.33;;;;;;;;;;4882680;29;21083;-84
2022/06/09 06:43:07;;;;;;;26.27;20.25;;;;;;;;;;4889417;29;20482;-82
2022/06/09 06:45:33;;;;;;;27.95;20.23;;;;;;;;;;4889056;29;20092;-82
2022/06/09 06:47:59;;;;;;;23.00;18.38;;;;;;;;;;4884011;29;20055;-83
2022/06/09 06:50:25;;;;;;;20.95;17.23;;;;;;;;;;4909541;29;20441;-82
2022/06/09 06:52:52;;;;;;;20.98;16.70;;;;;;;;;;4911594;29;20051;-82
2022/06/09 06:55:19;;;;;;;13.77;12.38;;;;;;;;;;4907850;29;20098;-83
2022/06/09 06:57:46;;;;;;;16.42;14.73;;;;;;;;;;4894043;29;20136;-83
2022/06/09 07:00:13;;;;;;;18.05;15.18;;;;;;;;;;4895028;29;20052;-82
2022/06/09 07:02:39;;;;;;;19.88;15.93;;;;;;;;;;4910324;29;20123;-82
2022/06/09 07:05:08;;;;;;;22.33;17.95;;;;;;;;;;4910891;29;20048;-82
2022/06/09 07:07:34;;;;;;;23.60;18.10;;;;;;;;;;4906597;29;20060;-83
2022/06/09 07:10:00;;;;;;;25.60;19.00;;;;;;;;;;4910325;29;20063;-82
2022/06/09 07:12:26;;;;;;;23.88;18.90;;;;;;;;;;4907822;29;20048;-84
2022/06/09 07:15:01;;;;;;;25.20;20.33;;;;;;;;;;4899843;29;20478;-83
2022/06/09 07:17:27;;;;;;;22.60;18.15;;;;;;;;;;4890954;29;20069;-82
2022/06/09 07:20:08;;;;;;;25.17;19.77;;;;;;;;;;4871197;29;20183;-82
2022/06/09 07:22:35;;;;;;;20.77;16.80;;;;;;;;;;4901207;29;20040;-82
2022/06/09 07:25:01;;;;;;;21.02;16.88;;;;;;;;;;4872435;29;20048;-83
2022/06/09 07:27:33;;;;;;;20.85;17.17;;;;;;;;;;4888960;29;20446;-83
2022/06/09 07:30:00;;;;;;;20.08;16.60;;;;;;;;;;4903047;29;20488;-82
2022/06/09 07:32:29;;;;;;;17.88;14.90;;;;;;;;;;4886831;29;20043;-83
2022/06/09 07:34:58;;;;;;;19.98;14.93;;;;;;;;;;4904234;29;21807;-82
2022/06/09 07:37:25;;;;;;;18.20;15.05;;;;;;;;;;4903611;29;20417;-82
2022/06/09 07:39:51;;;;;;;17.77;15.43;;;;;;;;;;4902850;29;20047;-83
2022/06/09 07:42:20;;;;;;;22.20;17.23;;;;;;;;;;4871458;29;20497;-83
2022/06/09 07:44:47;;;;;;;21.52;18.10;;;;;;;;;;4904668;29;20051;-83
2022/06/09 07:47:15;;;;;;;16.90;15.10;;;;;;;;;;4903653;29;20160;-82
2022/06/09 07:49:41;;;;;;;18.50;15.43;;;;;;;;;;4888690;29;20044;-83
2022/06/09 07:52:10;;;;;;;13.70;12.10;;;;;;;;;;4903523;29;20044;-86
2022/06/09 07:54:36;;;;;;;12.10;10.80;;;;;;;;;;4901440;29;20048;-83
2022/06/09 07:57:03;;;;;;;13.52;10.95;;;;;;;;;;4886493;29;20044;-85
2022/06/09 07:59:29;;;;;;;15.35;11.13;;;;;;;;;;4904449;29;20044;-83
2022/06/09 08:01:55;;;;;;;12.80;10.00;;;;;;;;;;4887413;29;20051;-84
2022/06/09 08:04:21;;;;;;;10.20;8.88;;;;;;;;;;4905897;29;20180;-82
2022/06/09 08:06:48;;;;;;;9.48;8.57;;;;;;;;;;4874173;29;20087;-84
2022/06/09 08:09:17;;;;;;;10.63;9.52;;;;;;;;;;4893656;29;20521;-83
2022/06/09 08:11:49;;;;;;;10.80;9.32;;;;;;;;;;4910144;29;20088;-83
2022/06/09 08:14:15;;;;;;;10.30;7.82;;;;;;;;;;4906731;29;20044;-85
2022/06/09 08:16:47;;;;;;;8.55;7.10;;;;;;;;;;4889929;29;20399;-83
2022/06/09 08:19:20;;;;;;;5.43;4.50;;;;;;;;;;4904172;29;20143;-83
2022/06/09 08:21:52;;;;;;;6.18;4.72;;;;;;;;;;4883867;29;20507;-84
2022/06/09 08:24:18;;;;;;;5.13;4.00;;;;;;;;;;4886461;29;20053;-83
2022/06/09 08:27:03;;;;;;;5.28;4.07;;;;;;;;;;4899965;29;20555;-85
2022/06/09 08:29:41;;;;;;;5.70;3.88;;;;;;;;;;4894369;29;20040;-84
2022/06/09 08:32:13;;;;;;;5.40;4.40;;;;;;;;;;4906645;29;20056;-84
2022/06/09 08:34:48;;;;;;;7.43;3.97;;;;;;;;;;4906113;29;20044;-83
2022/06/09 08:37:20;;;;;;;5.75;3.45;;;;;;;;;;4907057;29;20056;-83
2022/06/09 08:39:46;;;;;;;6.25;3.90;;;;;;;;;;4904998;29;20407;-84
2022/06/09 08:42:24;;;;;;;8.57;4.35;;;;;;;;;;4892185;29;20052;-84
2022/06/09 08:44:53;;;;;;;7.38;3.78;;;;;;;;;;4915837;29;20060;-84
2022/06/09 08:47:37;;;;;;;6.75;3.22;;;;;;;;;;4927807;29;20051;-83
2022/06/09 08:50:38;;;;;;;4.95;2.22;;;;;;;;;;4925860;29;20551;-84
2022/06/09 08:53:23;;;;;;;6.30;2.30;;;;;;;;;;4921731;29;20044;-84
2022/06/09 08:56:15;;;;;;;5.57;2.38;;;;;;;;;;4911237;29;20496;-84
2022/06/09 08:58:56;;;;;;;9.93;2.90;;;;;;;;;;4903323;29;20102;-83
2022/06/09 09:01:47;;;;;;;3.10;2.55;;;;;;;;;;4921713;29;20055;-84
2022/06/09 09:04:21;;;;;;;4.75;2.58;;;;;;;;;;4924618;29;20056;-83
2022/06/09 09:06:57;;;;;;;5.57;2.55;;;;;;;;;;4916536;29;20517;-86
2022/06/09 09:09:26;;;;;;;4.15;1.83;;;;;;;;;;4927889;29;20044;-87
2022/06/09 09:11:58;;;;;;;10.10;2.53;;;;;;;;;;4922525;29;20162;-84
2022/06/09 09:14:33;;;;;;;4.97;2.25;;;;;;;;;;4920811;29;20052;-84
2022/06/09 09:17:13;;;;;;;5.72;1.95;;;;;;;;;;4913094;29;20050;-83
2022/06/09 09:19:42;;;;;;;4.75;2.05;;;;;;;;;;4924329;29;20052;-85
2022/06/09 09:22:39;;;;;;;10.73;2.67;;;;;;;;;;4930885;29;20530;-86
2022/06/09 09:25:24;;;;;;;7.65;2.45;;;;;;;;;;4918531;29;20051;-82
2022/06/09 09:28:01;;;;;;;9.40;1.73;;;;;;;;;;4895913;29;20047;-84
2022/06/09 09:31:03;;;;;;;3.78;1.40;;;;;;;;;;4928478;29;20112;-85
2022/06/09 09:33:30;;;;;;;5.50;1.30;;;;;;;;;;4929357;29;20138;-83
2022/06/09 09:36:05;;;;;;;3.70;1.35;;;;;;;;;;4933344;29;20444;-85
2022/06/09 09:38:45;;;;;;;3.60;1.40;;;;;;;;;;4930306;29;20512;-86
2022/06/09 09:41:25;;;;;;;3.72;1.17;;;;;;;;;;4913487;29;20059;-86
2022/06/09 09:43:54;;;;;;;6.20;1.25;;;;;;;;;;4921320;29;20531;-86
2022/06/09 09:46:27;;;;;;;4.40;1.45;;;;;;;;;;4913871;29;20055;-85
2022/06/09 09:48:56;;;;;;;5.60;1.33;;;;;;;;;;4887580;29;20127;-86
2022/06/09 09:51:32;;;;;;;4.85;1.20;;;;;;;;;;4909095;29;20077;-85
2022/06/09 09:53:58;;;;;;;5.35;1.35;;;;;;;;;;4911419;29;20075;-86
2022/06/09 09:56:52;;;;;;;5.65;1.67;;;;;;;;;;4881886;29;20094;-85
2022/06/09 09:59:20;;;;;;;3.75;1.33;;;;;;;;;;4929306;29;20083;-83
2022/06/09 10:10:32;;;;;;;6.57;1.50;;;;;;;;;;4912233;29;20058;-85
2022/06/09 10:12:58;;;;;;;8.52;1.55;;;;;;;;;;4912979;29;20050;-84
2022/06/09 10:15:26;;;;;;;6.13;1.55;;;;;;;;;;4896326;29;20522;-84
2022/06/09 10:18:16;;;;;;;6.75;1.23;;;;;;;;;;4901111;29;20133;-83
2022/06/09 10:20:43;;;;;;;3.22;1.20;;;;;;;;;;4913192;29;20135;-83
2022/06/09 10:23:09;;;;;;;7.35;1.42;;;;;;;;;;4905638;29;20062;-85
2022/06/09 10:25:40;;;;;;;101.05;12.75;;;;;;;;;;4925442;29;20054;-83
2022/06/09 10:28:22;;;;;;;5.28;1.30;;;;;;;;;;4923102;29;20134;-84
2022/06/09 10:30:59;;;;;;;8.57;1.30;;;;;;;;;;4924037;29;20115;-83
2022/06/09 10:33:41;;;;;;;3.83;1.17;;;;;;;;;;4891295;29;20051;-84
2022/06/09 10:36:30;;;;;;;6.22;1.33;;;;;;;;;;4921346;29;20054;-84
2022/06/09 10:39:17;;;;;;;5.70;1.42;;;;;;;;;;4862582;29;20127;-84
2022/06/09 10:41:47;;;;;;;7.15;1.20;;;;;;;;;;4924929;29;20164;-84
2022/06/09 10:44:32;;;;;;;4.30;1.45;;;;;;;;;;4904684;29;20064;-85
2022/06/09 10:56:24;;;;;;;5.47;1.35;;;;;;;;;;4904941;29;20066;-84
2022/06/09 10:59:18;;;;;;;9.60;1.52;;;;;;;;;;4904682;29;20044;-84
2022/06/09 11:01:50;;;;;;;6.10;1.90;;;;;;;;;;4904175;29;20099;-83
2022/06/09 11:04:18;;;;;;;7.13;1.52;;;;;;;;;;4903557;29;20048;-85
2022/06/09 11:07:11;;;;;;;8.32;1.63;;;;;;;;;;4888919;29;20084;-87
2022/06/09 11:09:40;;;;;;;10.40;2.10;;;;;;;;;;4875961;29;20584;-87
2022/06/09 11:12:19;;;;;;;8.15;1.77;;;;;;;;;;4901413;29;20323;-83
2022/06/09 11:14:54;;;;;;;11.50;2.00;;;;;;;;;;4900649;29;20143;-87
2022/06/09 11:17:24;;;;;;;11.88;1.98;;;;;;;;;;4886979;29;20135;-87
2022/06/09 11:19:59;;;;;;;5.50;1.50;;;;;;;;;;4887749;29;20790;-86
2022/06/09 11:22:38;;;;;;;7.18;1.35;;;;;;;;;;4902638;29;20070;-87
2022/06/09 11:25:23;;;;;;;5.82;1.80;;;;;;;;;;4886240;29;20511;-86
2022/06/09 11:28:07;;;;;;;5.78;1.33;;;;;;;;;;4901974;29;20041;-87
2022/06/09 11:30:39;;;;;;;6.78;1.60;;;;;;;;;;4906434;29;20040;-87
2022/06/09 11:33:24;;;;;;;6.40;1.55;;;;;;;;;;4896254;29;20146;-87
2022/06/09 11:36:00;;;;;;;6.07;1.52;;;;;;;;;;4884806;29;20040;-86
2022/06/09 11:38:29;;;;;;;6.43;1.60;;;;;;;;;;4904931;29;20198;-87
2022/06/09 11:41:11;;;;;;;6.07;1.45;;;;;;;;;;4902116;29;20047;-86
2022/06/09 11:43:56;;;;;;;6.50;1.30;;;;;;;;;;4887994;29;20049;-88
2022/06/09 11:46:26;;;;;;;100.03;11.20;;;;;;;;;;4906822;29;20044;-84
2022/06/09 11:48:57;;;;;;;9.48;2.10;;;;;;;;;;4890143;29;20122;-86
2022/06/09 11:51:25;;;;;;;4.15;1.27;;;;;;;;;;4906646;29;20110;-87
2022/06/09 11:53:59;;;;;;;14.15;2.15;;;;;;;;;;4922556;29;20456;-87
2022/06/09 11:56:34;;;;;;;6.20;1.40;;;;;;;;;;4893268;29;20039;-87
2022/06/09 11:59:02;;;;;;;8.40;1.70;;;;;;;;;;4906420;29;20052;-83
2022/06/09 12:01:43;;;;;;;5.53;1.30;;;;;;;;;;4905194;29;20047;-84
2022/06/09 12:04:09;;;;;;;6.25;1.35;;;;;;;;;;4906461;29;20056;-85
2022/06/09 12:06:35;;;;;;;6.97;1.80;;;;;;;;;;4908448;29;20044;-87
2022/06/09 12:09:13;;;;;;;8.40;1.33;;;;;;;;;;4907832;29;20056;-87
2022/06/09 12:11:52;;;;;;;4.90;1.92;;;;;;;;;;4904473;29;20043;-89
2022/06/09 12:14:21;;;;;;;6.65;1.80;;;;;;;;;;4905698;29;20126;-87
2022/06/09 12:16:56;;;;;;;9.10;2.05;;;;;;;;;;4920458;29;20047;-86
2022/06/09 12:19:35;;;;;;;5.63;1.45;;;;;;;;;;4899900;29;20277;-87
2022/06/09 12:22:33;;;;;;;4.57;1.33;;;;;;;;;;4882005;29;20055;-86
2022/06/09 12:25:11;;;;;;;7.22;1.40;;;;;;;;;;4900651;29;20103;-88
2022/06/09 12:27:38;;;;;;;3.92;1.27;;;;;;;;;;4902015;29;20057;-87
2022/06/09 12:30:04;;;;;;;4.95;1.17;;;;;;;;;;4899214;29;20052;-89
2022/06/09 12:32:44;;;;;;;7.50;1.58;;;;;;;;;;4887473;29;20883;-87
2022/06/09 12:35:22;;;;;;;6.25;1.17;;;;;;;;;;4898941;29;20175;-88
2022/06/09 12:38:07;;;;;;;4.97;1.60;;;;;;;;;;4883266;29;20154;-83
2022/06/09 12:40:45;;;;;;;5.35;1.40;;;;;;;;;;4882659;29;20051;-83
2022/06/09 12:43:40;;;;;;;4.90;1.13;;;;;;;;;;4868193;29;20733;-88
2022/06/09 12:46:15;;;;;;;2.88;0.73;;;;;;;;;;4887953;29;20174;-88
2022/06/09 12:48:53;;;;;;;3.22;0.70;;;;;;;;;;4895260;29;20111;-88
2022/06/09 12:51:33;;;;;;;4.88;1.20;;;;;;;;;;4921765;29;20137;-86
2022/06/09 12:54:02;;;;;;;4.10;1.27;;;;;;;;;;4911016;29;20074;-86
2022/06/09 12:56:35;;;;;;;2.78;1.05;;;;;;;;;;4927209;29;20409;-86
2022/06/09 12:59:16;;;;;;;4.60;0.93;;;;;;;;;;4909797;29;20040;-87
2022/06/09 13:01:50;;;;;;;3.83;0.95;;;;;;;;;;4907862;29;20056;-87
2022/06/09 13:04:24;;;;;;;4.75;1.50;;;;;;;;;;4909354;29;20044;-84
2022/06/09 13:06:51;;;;;;;11.05;1.75;;;;;;;;;;4925950;29;20047;-89
2022/06/09 13:09:19;;;;;;;5.10;1.40;;;;;;;;;;4922826;29;20036;-87
2022/06/09 13:14:49;;;;;;;4.68;1.08;;;;;;;;;;4928551;29;20627;-88
2022/06/09 13:17:21;;;;;;;3.63;0.80;;;;;;;;;;4927753;29;20049;-87
2022/06/09 13:19:55;;;;;;;6.72;1.30;;;;;;;;;;4925516;29;20048;-85
2022/06/09 13:22:24;;;;;;;4.25;1.20;;;;;;;;;;4928245;29;20050;-86
2022/06/09 13:27:55;;;;;;;3.38;1.10;;;;;;;;;;4926428;29;20068;-84
2022/06/09 13:30:40;;;;;;;4.55;1.02;;;;;;;;;;4924547;29;20054;-85
2022/06/09 13:33:24;;;;;;;6.78;1.25;;;;;;;;;;4936883;29;20084;-85
2022/06/09 13:36:16;;;;;;;9.30;1.85;;;;;;;;;;4923420;29;20108;-85
2022/06/09 13:38:42;;;;;;;4.25;1.20;;;;;;;;;;4915558;29;20060;-85
2022/06/09 13:41:27;;;;;;;6.40;1.40;;;;;;;;;;4932819;29;20044;-88
2022/06/09 13:43:56;;;;;;;6.20;1.15;;;;;;;;;;4916576;29;20507;-89
2022/06/09 13:46:31;;;;;;;7.35;1.75;;;;;;;;;;4930486;29;20072;-82
2022/06/09 13:49:01;;;;;;;6.82;1.40;;;;;;;;;;4928182;29;20391;-88
2022/06/09 13:51:29;;;;;;;5.45;1.73;;;;;;;;;;4929999;29;20075;-87
2022/06/09 13:54:08;;;;;;;5.25;1.25;;;;;;;;;;4895631;29;20051;-88
2022/06/09 13:56:34;;;;;;;6.65;2.00;;;;;;;;;;4930864;29;20035;-85
2022/06/09 13:59:01;;;;;;;5.82;1.85;;;;;;;;;;4911166;29;20047;-83
2022/06/09 14:01:27;;;;;;;11.35;1.90;;;;;;;;;;4912106;29;21681;-84
2022/06/09 14:03:53;;;;;;;7.60;2.50;;;;;;;;;;4926142;29;20676;-85
2022/06/09 14:06:21;;;;;;;6.32;1.60;;;;;;;;;;4930443;29;20500;-85
2022/06/09 14:08:48;;;;;;;7.95;1.20;;;;;;;;;;4931524;29;20035;-88
2022/06/09 14:11:20;;;;;;;6.45;1.40;;;;;;;;;;4927954;29;20055;-87
2022/06/09 14:13:46;;;;;;;6.85;1.48;;;;;;;;;;4913672;29;20058;-86
2022/06/09 14:16:21;;;;;;;5.30;1.50;;;;;;;;;;4929544;29;20048;-87
2022/06/09 14:18:47;;;;;;;4.47;1.17;;;;;;;;;;4927520;29;20044;-83
2022/06/09 14:21:14;;;;;;;5.03;1.60;;;;;;;;;;4897506;29;20052;-85
2022/06/09 14:23:40;;;;;;;3.10;1.30;;;;;;;;;;4912650;29;20496;-82
2022/06/09 14:26:18;;;;;;;4.82;1.23;;;;;;;;;;4913455;29;20035;-83
2022/06/09 14:28:45;;;;;;;7.82;2.00;;;;;;;;;;4929328;29;20475;-84
2022/06/09 14:31:15;;;;;;;7.90;1.80;;;;;;;;;;4919169;29;20052;-88
2022/06/09 14:33:41;;;;;;;6.35;1.90;;;;;;;;;;4911507;29;20468;-89
2022/06/09 14:36:08;;;;;;;6.07;1.60;;;;;;;;;;4930489;29;20508;-89
2022/06/09 14:38:46;;;;;;;8.50;1.75;;;;;;;;;;4912379;29;20107;-85
2022/06/09 14:41:13;;;;;;;8.15;1.98;;;;;;;;;;4929777;29;20131;-88
2022/06/09 14:43:40;;;;;;;7.28;1.60;;;;;;;;;;4913385;29;20071;-87
2022/06/09 14:46:07;;;;;;;6.18;1.50;;;;;;;;;;4911089;29;20096;-87
2022/06/09 14:48:33;;;;;;;8.57;1.98;;;;;;;;;;4929735;29;20075;-88
2022/06/09 14:50:59;;;;;;;8.02;1.90;;;;;;;;;;4907655;29;20031;-88
2022/06/09 14:53:44;;;;;;;4.60;1.50;;;;;;;;;;4896122;29;20090;-89
2022/06/09 14:56:15;;;;;;;8.00;1.75;;;;;;;;;;4911223;29;20050;-88
2022/06/09 14:58:41;;;;;;;10.98;2.15;;;;;;;;;;4912859;29;20130;-89
2022/06/09 15:01:07;;;;;;;4.97;1.40;;;;;;;;;;4895869;29;20050;-90
2022/06/09 15:03:33;;;;;;;3.65;1.52;;;;;;;;;;4892220;29;20198;-86
2022/06/09 15:09:24;;;;;;;10.13;2.10;;;;;;;;;;4946014;23;20112;-89
2022/06/09 15:11:52;;;;;;;8.80;2.22;;;;;;;;;;4901927;29;20048;-90
2022/06/09 15:14:19;;;;;;;8.00;1.95;;;;;;;;;;4911935;29;20104;-87
2022/06/09 15:20:17;;;;;;;9.20;2.22;;;;;;;;;;4932918;29;20543;-87
2022/06/09 15:22:43;;;;;;;12.07;2.40;;;;;;;;;;4910289;29;20072;-88
2022/06/09 15:28:51;;;;;;;12.93;4.35;;;;;;;;;;4931956;23;20110;-90
2022/06/09 15:31:46;;;;;;;11.75;3.08;;;;;;;;;;4916870;29;20139;-88
2022/06/09 15:34:15;;;;;;;11.70;3.30;;;;;;;;;;4916328;29;20055;-85
2022/06/09 15:36:41;;;;;;;12.48;3.70;;;;;;;;;;4925234;29;20058;-86
2022/06/09 15:39:07;;;;;;;11.57;2.10;;;;;;;;;;4931085;29;20047;-86